sensor_id;sensor_type;location;lat;lon;timestamp;pressure;altitude;pressure_sealevel;temperature;humidity
38852;BME280;24605;50.092;9.182;2022-11-13T00:00:48;99047.06;;;5.04;100.00
38852;BME280;24605;50.092;9.182;2022-11-13T00:03:14;99046.34;;;5.02;100.00
38852;BME280;24605;50.092;9.182;2022-11-13T00:05:41;99026.53;;;4.75;100.00
38852;BME280;24605;50.092;9.182;2022-11-13T00:08:07;99031.91;;;4.72;100.00
38852;BME280;24605;50.092;9.182;2022-11-13T00:10:35;99018.44;;;4.67;100.00
38852;BME280;24605;50.092;9.182;2022-11-13T00:13:02;99035.63;;;4.81;100.00
38852;BME280;24605;50.092;9.182;2022-11-13T00:15:29;99029.13;;;4.75;100.00
38852;BME280;24605;50.092;9.182;2022-11-13T00:17:59;99020.19;;;4.66;100.00
38852;BME280;24605;50.092;9.182;2022-11-13T00:20:26;99021.00;;;4.54;100.00
38852;BME280;24605;50.092;9.182;2022-11-13T00:22:52;99016.13;;;4.62;100.00
38852;BME280;24605;50.092;9.182;2022-11-13T00:25:19;99019.22;;;4.80;100.00
38852;BME280;24605;50.092;9.182;2022-11-13T00:27:47;99013.19;;;4.93;100.00
38852;BME280;24605;50.092;9.182;2022-11-13T00:30:14;99013.81;;;5.33;100.00
38852;BME280;24605;50.092;9.182;2022-11-13T00:32:40;99014.66;;;5.34;100.00
38852;BME280;24605;50.092;9.182;2022-11-13T00:35:07;99012.78;;;5.36;100.00
38852;BME280;24605;50.092;9.182;2022-11-13T00:37:34;99018.97;;;5.22;100.00
38852;BME280;24605;50.092;9.182;2022-11-13T00:40:00;99009.84;;;5.04;100.00
38852;BME280;24605;50.092;9.182;2022-11-13T00:42:26;99011.84;;;5.00;100.00
38852;BME280;24605;50.092;9.182;2022-11-13T00:44:54;99005.59;;;5.02;100.00
38852;BME280;24605;50.092;9.182;2022-11-13T00:47:21;99002.38;;;4.99;100.00
38852;BME280;24605;50.092;9.182;2022-11-13T00:49:47;98999.88;;;4.97;100.00
38852;BME280;24605;50.092;9.182;2022-11-13T00:52:13;98998.53;;;4.92;100.00
38852;BME280;24605;50.092;9.182;2022-11-13T00:54:40;98992.72;;;4.88;100.00
38852;BME280;24605;50.092;9.182;2022-11-13T00:57:06;98985.25;;;4.83;100.00
38852;BME280;24605;50.092;9.182;2022-11-13T00:59:33;98981.28;;;4.91;100.00
38852;BME280;24605;50.092;9.182;2022-11-13T01:02:01;98988.69;;;4.84;100.00
38852;BME280;24605;50.092;9.182;2022-11-13T01:04:27;98985.91;;;4.74;100.00
38852;BME280;24605;50.092;9.182;2022-11-13T01:06:54;98984.13;;;4.62;100.00
38852;BME280;24605;50.092;9.182;2022-11-13T01:09:20;98987.03;;;4.57;100.00
38852;BME280;24605;50.092;9.182;2022-11-13T01:11:47;98978.50;;;4.55;100.00
38852;BME280;24605;50.092;9.182;2022-11-13T01:14:13;98981.34;;;4.52;100.00
38852;BME280;24605;50.092;9.182;2022-11-13T01:16:39;98983.00;;;4.40;100.00
38852;BME280;24605;50.092;9.182;2022-11-13T01:19:07;98979.97;;;4.46;100.00
38852;BME280;24605;50.092;9.182;2022-11-13T01:21:34;98978.13;;;4.48;100.00
38852;BME280;24605;50.092;9.182;2022-11-13T01:24:00;98931.91;;;4.15;100.00
38852;BME280;24605;50.092;9.182;2022-11-13T01:26:28;98973.25;;;4.44;100.00
38852;BME280;24605;50.092;9.182;2022-11-13T01:28:57;98975.84;;;4.57;100.00
38852;BME280;24605;50.092;9.182;2022-11-13T01:31:25;98966.69;;;4.64;100.00
38852;BME280;24605;50.092;9.182;2022-11-13T01:33:52;98971.25;;;4.47;100.00
38852;BME280;24605;50.092;9.182;2022-11-13T01:36:21;98955.47;;;4.24;100.00
38852;BME280;24605;50.092;9.182;2022-11-13T01:38:48;98967.50;;;4.26;100.00
38852;BME280;24605;50.092;9.182;2022-11-13T01:41:18;98961.69;;;4.35;100.00
38852;BME280;24605;50.092;9.182;2022-11-13T01:43:45;98942.50;;;4.24;100.00
38852;BME280;24605;50.092;9.182;2022-11-13T01:46:26;98954.75;;;4.22;100.00
38852;BME280;24605;50.092;9.182;2022-11-13T01:48:58;98957.66;;;4.18;100.00
38852;BME280;24605;50.092;9.182;2022-11-13T01:51:31;98953.50;;;4.28;100.00
38852;BME280;24605;50.092;9.182;2022-11-13T01:53:59;98959.66;;;4.27;100.00
38852;BME280;24605;50.092;9.182;2022-11-13T01:56:28;98964.00;;;4.27;100.00
38852;BME280;24605;50.092;9.182;2022-11-13T01:58:58;98964.72;;;4.16;100.00
38852;BME280;24605;50.092;9.182;2022-11-13T02:01:26;98961.69;;;4.09;100.00
38852;BME280;24605;50.092;9.182;2022-11-13T02:03:53;98962.91;;;4.03;100.00
38852;BME280;24605;50.092;9.182;2022-11-13T02:06:19;98948.88;;;3.80;100.00
38852;BME280;24605;50.092;9.182;2022-11-13T02:08:49;98960.34;;;4.03;100.00
38852;BME280;24605;50.092;9.182;2022-11-13T02:11:16;98968.53;;;3.97;100.00
38852;BME280;24605;50.092;9.182;2022-11-13T02:13:43;98961.97;;;3.91;100.00
38852;BME280;24605;50.092;9.182;2022-11-13T02:16:10;98953.16;;;3.94;100.00
38852;BME280;24605;50.092;9.182;2022-11-13T02:18:38;98960.75;;;3.97;100.00
38852;BME280;24605;50.092;9.182;2022-11-13T02:21:14;98931.13;;;3.74;100.00
38852;BME280;24605;50.092;9.182;2022-11-13T02:23:45;98955.13;;;4.03;100.00
38852;BME280;24605;50.092;9.182;2022-11-13T02:26:15;98952.22;;;3.95;100.00
38852;BME280;24605;50.092;9.182;2022-11-13T02:28:45;98938.44;;;3.95;100.00
38852;BME280;24605;50.092;9.182;2022-11-13T02:31:12;98949.75;;;3.94;100.00
38852;BME280;24605;50.092;9.182;2022-11-13T02:33:39;98943.16;;;3.75;100.00
38852;BME280;24605;50.092;9.182;2022-11-13T02:36:07;98946.41;;;3.91;100.00
38852;BME280;24605;50.092;9.182;2022-11-13T02:38:35;98935.81;;;3.82;100.00
38852;BME280;24605;50.092;9.182;2022-11-13T02:41:02;98940.38;;;3.78;100.00
38852;BME280;24605;50.092;9.182;2022-11-13T02:43:30;98943.69;;;3.80;100.00
38852;BME280;24605;50.092;9.182;2022-11-13T02:45:56;98943.16;;;3.75;100.00
38852;BME280;24605;50.092;9.182;2022-11-13T02:48:23;98933.31;;;3.80;100.00
38852;BME280;24605;50.092;9.182;2022-11-13T02:50:49;98932.63;;;3.91;100.00
38852;BME280;24605;50.092;9.182;2022-11-13T02:53:15;98921.63;;;4.00;100.00
38852;BME280;24605;50.092;9.182;2022-11-13T02:55:42;98929.13;;;4.05;100.00
38852;BME280;24605;50.092;9.182;2022-11-13T02:58:08;98933.25;;;3.95;100.00
38852;BME280;24605;50.092;9.182;2022-11-13T03:00:36;98923.47;;;3.85;100.00
38852;BME280;24605;50.092;9.182;2022-11-13T03:03:02;98930.34;;;3.86;100.00
38852;BME280;24605;50.092;9.182;2022-11-13T03:05:29;98933.28;;;3.67;100.00
38852;BME280;24605;50.092;9.182;2022-11-13T03:07:55;98930.28;;;3.60;100.00
38852;BME280;24605;50.092;9.182;2022-11-13T03:10:22;98919.63;;;3.65;100.00
38852;BME280;24605;50.092;9.182;2022-11-13T03:12:48;98926.31;;;3.55;100.00
38852;BME280;24605;50.092;9.182;2022-11-13T03:15:15;98917.00;;;3.52;100.00
38852;BME280;24605;50.092;9.182;2022-11-13T03:17:43;98918.00;;;3.50;100.00
38852;BME280;24605;50.092;9.182;2022-11-13T03:20:09;98917.88;;;3.38;100.00
38852;BME280;24605;50.092;9.182;2022-11-13T03:22:36;98924.06;;;3.36;100.00
38852;BME280;24605;50.092;9.182;2022-11-13T03:25:03;98927.53;;;3.22;100.00
38852;BME280;24605;50.092;9.182;2022-11-13T03:27:29;98926.03;;;3.32;100.00
38852;BME280;24605;50.092;9.182;2022-11-13T03:29:56;98927.63;;;3.35;100.00
38852;BME280;24605;50.092;9.182;2022-11-13T03:32:23;98921.75;;;3.45;100.00
38852;BME280;24605;50.092;9.182;2022-11-13T03:34:51;98916.44;;;3.47;100.00
38852;BME280;24605;50.092;9.182;2022-11-13T03:37:17;98918.69;;;3.39;100.00
38852;BME280;24605;50.092;9.182;2022-11-13T03:39:44;98907.94;;;3.45;100.00
38852;BME280;24605;50.092;9.182;2022-11-13T03:42:10;98905.00;;;3.64;100.00
38852;BME280;24605;50.092;9.182;2022-11-13T03:44:36;98910.22;;;3.50;100.00
38852;BME280;24605;50.092;9.182;2022-11-13T03:47:03;98908.03;;;3.43;100.00
38852;BME280;24605;50.092;9.182;2022-11-13T03:49:30;98912.53;;;3.54;100.00
38852;BME280;24605;50.092;9.182;2022-11-13T03:51:57;98910.84;;;3.53;100.00
38852;BME280;24605;50.092;9.182;2022-11-13T03:54:24;98906.94;;;3.60;100.00
38852;BME280;24605;50.092;9.182;2022-11-13T03:56:50;98901.78;;;3.73;100.00
38852;BME280;24605;50.092;9.182;2022-11-13T03:59:17;98895.13;;;3.69;100.00
38852;BME280;24605;50.092;9.182;2022-11-13T04:01:43;98899.09;;;3.75;100.00
38852;BME280;24605;50.092;9.182;2022-11-13T04:04:10;98886.22;;;3.73;100.00
38852;BME280;24605;50.092;9.182;2022-11-13T04:06:36;98893.69;;;3.65;100.00
38852;BME280;24605;50.092;9.182;2022-11-13T04:09:04;98889.44;;;3.77;100.00
38852;BME280;24605;50.092;9.182;2022-11-13T04:11:31;98892.88;;;3.90;100.00
38852;BME280;24605;50.092;9.182;2022-11-13T04:13:57;98880.81;;;3.89;100.00
38852;BME280;24605;50.092;9.182;2022-11-13T04:16:24;98877.81;;;3.70;100.00
38852;BME280;24605;50.092;9.182;2022-11-13T04:18:50;98891.81;;;3.80;100.00
38852;BME280;24605;50.092;9.182;2022-11-13T04:21:17;98879.88;;;3.78;100.00
38852;BME280;24605;50.092;9.182;2022-11-13T04:23:43;98888.28;;;3.68;100.00
38852;BME280;24605;50.092;9.182;2022-11-13T04:26:11;98882.47;;;3.65;100.00
38852;BME280;24605;50.092;9.182;2022-11-13T04:28:37;98878.00;;;3.67;100.00
38852;BME280;24605;50.092;9.182;2022-11-13T04:31:04;98880.81;;;3.64;100.00
38852;BME280;24605;50.092;9.182;2022-11-13T04:33:30;98874.88;;;3.61;100.00
38852;BME280;24605;50.092;9.182;2022-11-13T04:35:57;98873.34;;;3.72;100.00
38852;BME280;24605;50.092;9.182;2022-11-13T04:38:23;98873.13;;;3.62;100.00
38852;BME280;24605;50.092;9.182;2022-11-13T04:40:50;98864.41;;;3.50;100.00
38852;BME280;24605;50.092;9.182;2022-11-13T04:43:38;98862.31;;;3.42;100.00
38852;BME280;24605;50.092;9.182;2022-11-13T04:46:04;98854.22;;;3.34;100.00
38852;BME280;24605;50.092;9.182;2022-11-13T04:48:30;98856.59;;;3.24;100.00
38852;BME280;24605;50.092;9.182;2022-11-13T04:50:57;98861.44;;;3.16;100.00
38852;BME280;24605;50.092;9.182;2022-11-13T04:53:24;98845.88;;;3.16;100.00
38852;BME280;24605;50.092;9.182;2022-11-13T04:55:51;98844.75;;;3.20;100.00
38852;BME280;24605;50.092;9.182;2022-11-13T04:58:17;98796.34;;;3.08;100.00
38852;BME280;24605;50.092;9.182;2022-11-13T05:00:45;98841.59;;;3.55;100.00
38852;BME280;24605;50.092;9.182;2022-11-13T05:03:12;98840.56;;;3.58;100.00
38852;BME280;24605;50.092;9.182;2022-11-13T05:05:38;98843.25;;;3.56;100.00
38852;BME280;24605;50.092;9.182;2022-11-13T05:08:04;98834.75;;;3.54;100.00
38852;BME280;24605;50.092;9.182;2022-11-13T05:10:31;98838.38;;;3.52;100.00
38852;BME280;24605;50.092;9.182;2022-11-13T05:12:57;98835.34;;;3.45;100.00
38852;BME280;24605;50.092;9.182;2022-11-13T05:15:24;98835.97;;;3.36;100.00
38852;BME280;24605;50.092;9.182;2022-11-13T05:17:52;98824.84;;;3.21;100.00
38852;BME280;24605;50.092;9.182;2022-11-13T05:20:19;98839.09;;;3.41;100.00
38852;BME280;24605;50.092;9.182;2022-11-13T05:22:45;98825.06;;;3.31;100.00
38852;BME280;24605;50.092;9.182;2022-11-13T05:25:12;98828.31;;;3.47;100.00
38852;BME280;24605;50.092;9.182;2022-11-13T05:27:38;98820.03;;;3.68;100.00
38852;BME280;24605;50.092;9.182;2022-11-13T05:30:06;98814.75;;;3.56;100.00
38852;BME280;24605;50.092;9.182;2022-11-13T05:32:33;98814.63;;;3.58;100.00
38852;BME280;24605;50.092;9.182;2022-11-13T05:35:00;98809.25;;;3.74;100.00
38852;BME280;24605;50.092;9.182;2022-11-13T05:37:27;98809.88;;;3.78;100.00
38852;BME280;24605;50.092;9.182;2022-11-13T05:39:54;98803.56;;;3.69;100.00
38852;BME280;24605;50.092;9.182;2022-11-13T05:42:20;98808.00;;;3.92;100.00
38852;BME280;24605;50.092;9.182;2022-11-13T05:44:46;98804.47;;;3.94;100.00
38852;BME280;24605;50.092;9.182;2022-11-13T05:47:13;98775.53;;;3.61;100.00
38852;BME280;24605;50.092;9.182;2022-11-13T05:49:39;98800.34;;;3.65;100.00
38852;BME280;24605;50.092;9.182;2022-11-13T05:52:07;98798.06;;;3.48;100.00
38852;BME280;24605;50.092;9.182;2022-11-13T05:54:34;98794.81;;;3.44;100.00
38852;BME280;24605;50.092;9.182;2022-11-13T05:57:00;98788.09;;;3.54;100.00
38852;BME280;24605;50.092;9.182;2022-11-13T05:59:27;98801.66;;;3.58;100.00
38852;BME280;24605;50.092;9.182;2022-11-13T06:01:53;98796.78;;;3.53;100.00
38852;BME280;24605;50.092;9.182;2022-11-13T06:04:20;98795.97;;;3.66;100.00
38852;BME280;24605;50.092;9.182;2022-11-13T06:06:46;98793.88;;;3.58;100.00
38852;BME280;24605;50.092;9.182;2022-11-13T06:09:14;98788.31;;;3.77;100.00
38852;BME280;24605;50.092;9.182;2022-11-13T06:11:42;98786.84;;;3.86;100.00
38852;BME280;24605;50.092;9.182;2022-11-13T06:14:09;98779.16;;;3.97;100.00
38852;BME280;24605;50.092;9.182;2022-11-13T06:16:36;98777.38;;;3.98;100.00
38852;BME280;24605;50.092;9.182;2022-11-13T06:19:04;98770.19;;;4.01;100.00
38852;BME280;24605;50.092;9.182;2022-11-13T06:21:32;98776.66;;;4.08;100.00
38852;BME280;24605;50.092;9.182;2022-11-13T06:24:00;98777.34;;;4.11;100.00
38852;BME280;24605;50.092;9.182;2022-11-13T06:26:30;98778.91;;;4.13;100.00
38852;BME280;24605;50.092;9.182;2022-11-13T06:28:57;98766.41;;;4.31;100.00
38852;BME280;24605;50.092;9.182;2022-11-13T06:31:25;98766.25;;;4.46;100.00
38852;BME280;24605;50.092;9.182;2022-11-13T06:33:52;98766.16;;;4.72;100.00
38852;BME280;24605;50.092;9.182;2022-11-13T06:36:21;98757.03;;;4.66;100.00
38852;BME280;24605;50.092;9.182;2022-11-13T06:38:48;98759.66;;;4.77;100.00
38852;BME280;24605;50.092;9.182;2022-11-13T06:41:16;98762.72;;;4.95;100.00
38852;BME280;24605;50.092;9.182;2022-11-13T06:43:44;98763.09;;;5.02;100.00
38852;BME280;24605;50.092;9.182;2022-11-13T06:46:13;98756.44;;;4.98;100.00
38852;BME280;24605;50.092;9.182;2022-11-13T06:48:40;98763.44;;;4.97;100.00
38852;BME280;24605;50.092;9.182;2022-11-13T06:51:09;98752.34;;;5.07;100.00
38852;BME280;24605;50.092;9.182;2022-11-13T06:53:38;98752.28;;;5.31;100.00
38852;BME280;24605;50.092;9.182;2022-11-13T06:56:05;98753.97;;;5.43;100.00
38852;BME280;24605;50.092;9.182;2022-11-13T06:58:32;98754.94;;;5.54;100.00
38852;BME280;24605;50.092;9.182;2022-11-13T07:01:05;98737.41;;;5.33;100.00
38852;BME280;24605;50.092;9.182;2022-11-13T07:03:31;98757.53;;;5.65;100.00
38852;BME280;24605;50.092;9.182;2022-11-13T07:06:00;98757.97;;;5.47;100.00
38852;BME280;24605;50.092;9.182;2022-11-13T07:08:26;98753.88;;;5.56;100.00
38852;BME280;24605;50.092;9.182;2022-11-13T07:10:54;98763.91;;;5.49;100.00
38852;BME280;24605;50.092;9.182;2022-11-13T07:13:21;98762.72;;;5.54;100.00
38852;BME280;24605;50.092;9.182;2022-11-13T07:15:47;98752.34;;;5.54;100.00
38852;BME280;24605;50.092;9.182;2022-11-13T07:18:15;98761.56;;;5.80;100.00
38852;BME280;24605;50.092;9.182;2022-11-13T07:20:42;98748.44;;;5.59;100.00
38852;BME280;24605;50.092;9.182;2022-11-13T07:23:09;98753.84;;;5.45;100.00
38852;BME280;24605;50.092;9.182;2022-11-13T07:25:35;98750.88;;;5.38;100.00
38852;BME280;24605;50.092;9.182;2022-11-13T07:28:02;98748.03;;;5.30;100.00
38852;BME280;24605;50.092;9.182;2022-11-13T07:30:28;98748.28;;;5.27;100.00
38852;BME280;24605;50.092;9.182;2022-11-13T07:32:55;98735.03;;;5.18;100.00
38852;BME280;24605;50.092;9.182;2022-11-13T07:35:23;98748.28;;;5.27;100.00
38852;BME280;24605;50.092;9.182;2022-11-13T07:37:54;98737.97;;;5.25;100.00
38852;BME280;24605;50.092;9.182;2022-11-13T07:40:20;98740.38;;;5.40;100.00
38852;BME280;24605;50.092;9.182;2022-11-13T07:42:46;98747.94;;;5.54;100.00
38852;BME280;24605;50.092;9.182;2022-11-13T07:45:13;98751.16;;;5.69;100.00
38852;BME280;24605;50.092;9.182;2022-11-13T07:47:40;98746.66;;;5.83;98.54
38852;BME280;24605;50.092;9.182;2022-11-13T07:50:07;98750.09;;;5.94;97.32
38852;BME280;24605;50.092;9.182;2022-11-13T07:52:35;98746.19;;;6.11;95.79
38852;BME280;24605;50.092;9.182;2022-11-13T07:55:01;98730.56;;;6.11;95.32
38852;BME280;24605;50.092;9.182;2022-11-13T07:57:28;98746.16;;;6.34;95.32
38852;BME280;24605;50.092;9.182;2022-11-13T07:59:54;98748.50;;;6.37;90.32
38852;BME280;24605;50.092;9.182;2022-11-13T08:02:21;98681.84;;;6.02;89.41
38852;BME280;24605;50.092;9.182;2022-11-13T08:04:47;98738.81;;;6.39;89.75
38852;BME280;24605;50.092;9.182;2022-11-13T08:07:14;98743.63;;;6.55;92.37
38852;BME280;24605;50.092;9.182;2022-11-13T08:09:41;98740.00;;;6.68;89.78
38852;BME280;24605;50.092;9.182;2022-11-13T08:12:08;98728.03;;;6.77;92.26
38852;BME280;24605;50.092;9.182;2022-11-13T08:14:34;98730.75;;;6.75;88.32
38852;BME280;24605;50.092;9.182;2022-11-13T08:17:01;98722.09;;;6.74;88.07
38852;BME280;24605;50.092;9.182;2022-11-13T08:19:27;98730.38;;;6.80;88.95
38852;BME280;24605;50.092;9.182;2022-11-13T08:21:54;98696.88;;;6.75;89.69
38852;BME280;24605;50.092;9.182;2022-11-13T08:24:20;98719.13;;;7.21;84.90
38852;BME280;24605;50.092;9.182;2022-11-13T08:26:48;98723.72;;;7.29;82.50
38852;BME280;24605;50.092;9.182;2022-11-13T08:29:15;98718.81;;;7.36;84.80
38852;BME280;24605;50.092;9.182;2022-11-13T08:31:41;98713.84;;;7.33;82.64
38852;BME280;24605;50.092;9.182;2022-11-13T08:34:07;98715.13;;;7.39;81.55
38852;BME280;24605;50.092;9.182;2022-11-13T08:36:34;98701.91;;;7.61;80.76
38852;BME280;24605;50.092;9.182;2022-11-13T08:39:00;98706.88;;;7.64;79.25
38852;BME280;24605;50.092;9.182;2022-11-13T08:41:27;98702.06;;;7.69;77.76
38852;BME280;24605;50.092;9.182;2022-11-13T08:43:54;98698.13;;;7.85;79.54
38852;BME280;24605;50.092;9.182;2022-11-13T08:46:21;98685.78;;;7.87;76.92
38852;BME280;24605;50.092;9.182;2022-11-13T08:48:47;98702.84;;;8.01;76.72
38852;BME280;24605;50.092;9.182;2022-11-13T08:51:14;98702.03;;;8.00;78.49
38852;BME280;24605;50.092;9.182;2022-11-13T08:53:40;98702.03;;;8.00;78.38
38852;BME280;24605;50.092;9.182;2022-11-13T08:56:07;98702.06;;;8.10;76.28
38852;BME280;24605;50.092;9.182;2022-11-13T08:58:33;98690.38;;;8.14;77.50
38852;BME280;24605;50.092;9.182;2022-11-13T09:01:02;98694.63;;;8.15;79.83
38852;BME280;24605;50.092;9.182;2022-11-13T09:03:28;98690.38;;;8.14;79.56
38852;BME280;24605;50.092;9.182;2022-11-13T09:05:55;98690.41;;;8.24;79.05
38852;BME280;24605;50.092;9.182;2022-11-13T09:08:21;98687.94;;;8.23;80.24
38852;BME280;24605;50.092;9.182;2022-11-13T09:10:48;98684.34;;;8.34;80.86
38852;BME280;24605;50.092;9.182;2022-11-13T09:13:14;98687.13;;;8.42;83.15
38852;BME280;24605;50.092;9.182;2022-11-13T09:15:41;98678.16;;;8.44;82.62
38852;BME280;24605;50.092;9.182;2022-11-13T09:18:09;98679.53;;;8.29;84.89
38852;BME280;24605;50.092;9.182;2022-11-13T09:20:36;98671.41;;;8.22;87.94
38852;BME280;24605;50.092;9.182;2022-11-13T09:23:03;98677.06;;;8.27;89.28
38852;BME280;24605;50.092;9.182;2022-11-13T09:25:32;98669.94;;;8.49;78.80
38852;BME280;24605;50.092;9.182;2022-11-13T09:28:00;98664.56;;;8.70;81.28
38852;BME280;24605;50.092;9.182;2022-11-13T09:30:28;98668.44;;;8.76;87.58
38852;BME280;24605;50.092;9.182;2022-11-13T09:32:56;98674.63;;;8.75;91.44
38852;BME280;24605;50.092;9.182;2022-11-13T09:35:25;98671.19;;;8.65;93.73
38852;BME280;24605;50.092;9.182;2022-11-13T09:38:03;98672.56;;;8.49;94.12
38852;BME280;24605;50.092;9.182;2022-11-13T09:40:31;98671.59;;;8.50;90.33
38852;BME280;24605;50.092;9.182;2022-11-13T09:43:00;98660.59;;;8.56;90.72
38852;BME280;24605;50.092;9.182;2022-11-13T09:45:29;98662.38;;;8.46;92.16
38852;BME280;24605;50.092;9.182;2022-11-13T09:48:00;98655.91;;;8.40;92.28
38852;BME280;24605;50.092;9.182;2022-11-13T09:50:34;98643.50;;;8.42;92.28
38852;BME280;24605;50.092;9.182;2022-11-13T09:53:02;98644.78;;;8.48;92.51
38852;BME280;24605;50.092;9.182;2022-11-13T09:55:33;98615.06;;;8.39;91.94
38852;BME280;24605;50.092;9.182;2022-11-13T09:58:04;98641.34;;;8.67;92.02
38852;BME280;24605;50.092;9.182;2022-11-13T10:00:33;98639.00;;;8.64;92.81
38852;BME280;24605;50.092;9.182;2022-11-13T10:03:14;98633.34;;;8.78;92.32
38852;BME280;24605;50.092;9.182;2022-11-13T10:05:51;98638.13;;;8.93;91.36
38852;BME280;24605;50.092;9.182;2022-11-13T10:08:22;98640.50;;;9.24;90.29
38852;BME280;24605;50.092;9.182;2022-11-13T10:10:59;98646.31;;;9.55;87.08
38852;BME280;24605;50.092;9.182;2022-11-13T10:13:30;98634.44;;;9.61;86.39
38852;BME280;24605;50.092;9.182;2022-11-13T10:16:03;98630.13;;;9.70;84.25
38852;BME280;24605;50.092;9.182;2022-11-13T10:18:34;98590.66;;;9.53;86.79
38852;BME280;24605;50.092;9.182;2022-11-13T10:21:09;98616.63;;;9.93;85.90
38852;BME280;24605;50.092;9.182;2022-11-13T10:23:38;98614.97;;;9.92;86.01
38852;BME280;24605;50.092;9.182;2022-11-13T10:26:13;98608.09;;;9.91;85.28
38852;BME280;24605;50.092;9.182;2022-11-13T10:28:40;98578.22;;;10.01;71.00
38852;BME280;24605;50.092;9.182;2022-11-13T10:31:07;98600.09;;;10.28;68.90
38852;BME280;24605;50.092;9.182;2022-11-13T10:33:34;98577.44;;;10.37;70.20
38852;BME280;24605;50.092;9.182;2022-11-13T10:36:07;98583.75;;;10.53;67.25
38852;BME280;24605;50.092;9.182;2022-11-13T10:38:42;98591.75;;;10.69;68.93
38852;BME280;24605;50.092;9.182;2022-11-13T10:41:11;98586.97;;;10.91;66.18
38852;BME280;24605;50.092;9.182;2022-11-13T10:43:50;98586.31;;;10.89;68.16
38852;BME280;24605;50.092;9.182;2022-11-13T10:46:19;98579.50;;;11.04;65.24
38852;BME280;24605;50.092;9.182;2022-11-13T10:48:46;98562.88;;;11.30;59.20
38852;BME280;24605;50.092;9.182;2022-11-13T10:51:22;98544.50;;;11.30;60.15
38852;BME280;24605;50.092;9.182;2022-11-13T10:53:51;98559.28;;;11.31;60.59
38852;BME280;24605;50.092;9.182;2022-11-13T10:56:25;98553.19;;;11.22;60.57
38852;BME280;24605;50.092;9.182;2022-11-13T10:59:07;98553.22;;;11.31;57.29
38852;BME280;24605;50.092;9.182;2022-11-13T11:01:35;98534.25;;;11.53;56.10
38852;BME280;24605;50.092;9.182;2022-11-13T11:04:02;98519.50;;;11.77;55.31
38852;BME280;24605;50.092;9.182;2022-11-13T11:06:35;98507.22;;;11.94;51.98
38852;BME280;24605;50.092;9.182;2022-11-13T11:09:06;98510.72;;;12.19;52.86
38852;BME280;24605;50.092;9.182;2022-11-13T11:11:33;98492.81;;;12.15;54.13
38852;BME280;24605;50.092;9.182;2022-11-13T11:14:21;98485.72;;;12.23;63.51
38852;BME280;24605;50.092;9.182;2022-11-13T11:16:51;98491.81;;;12.24;66.07
38852;BME280;24605;50.092;9.182;2022-11-13T11:19:21;98481.78;;;12.28;67.10
38852;BME280;24605;50.092;9.182;2022-11-13T11:22:08;98482.41;;;12.30;65.50
38852;BME280;24605;50.092;9.182;2022-11-13T11:24:39;98487.03;;;12.28;61.49
38852;BME280;24605;50.092;9.182;2022-11-13T11:27:11;98478.81;;;12.22;63.67
38852;BME280;24605;50.092;9.182;2022-11-13T11:29:42;98476.84;;;12.25;63.98
38852;BME280;24605;50.092;9.182;2022-11-13T11:32:14;98448.25;;;11.97;66.08
38852;BME280;24605;50.092;9.182;2022-11-13T11:34:44;98484.94;;;12.06;68.23
38852;BME280;24605;50.092;9.182;2022-11-13T11:37:15;98485.38;;;11.94;68.00
38852;BME280;24605;50.092;9.182;2022-11-13T11:39:47;98469.16;;;12.06;66.76
38852;BME280;24605;50.092;9.182;2022-11-13T11:42:21;98471.56;;;12.33;65.21
38852;BME280;24605;50.092;9.182;2022-11-13T11:45:00;98469.91;;;12.40;70.56
38852;BME280;24605;50.092;9.182;2022-11-13T11:47:29;98465.13;;;12.44;68.25
38852;BME280;24605;50.092;9.182;2022-11-13T11:49:55;98447.72;;;12.51;63.23
38852;BME280;24605;50.092;9.182;2022-11-13T11:52:46;98470.50;;;12.67;65.03
38852;BME280;24605;50.092;9.182;2022-11-13T11:55:30;98433.72;;;12.59;65.33
38852;BME280;24605;50.092;9.182;2022-11-13T11:58:06;98452.94;;;12.67;63.64
38852;BME280;24605;50.092;9.182;2022-11-13T12:00:46;98442.88;;;12.71;62.68
38852;BME280;24605;50.092;9.182;2022-11-13T12:06:19;98443.53;;;13.13;51.40
38852;BME280;24605;50.092;9.182;2022-11-13T12:08:54;98415.59;;;13.04;49.92
38852;BME280;24605;50.092;9.182;2022-11-13T12:11:26;98441.50;;;13.15;49.67
38852;BME280;24605;50.092;9.182;2022-11-13T12:14:05;98438.50;;;13.26;69.55
38852;BME280;24605;50.092;9.182;2022-11-13T12:16:39;98435.25;;;13.16;74.96
38852;BME280;24605;50.092;9.182;2022-11-13T12:19:14;98429.41;;;12.66;82.89
38852;BME280;24605;50.092;9.182;2022-11-13T12:21:51;98431.91;;;12.59;83.77
38852;BME280;24605;50.092;9.182;2022-11-13T12:24:44;98443.44;;;12.50;84.01
38852;BME280;24605;50.092;9.182;2022-11-13T12:27:23;98421.94;;;12.30;82.31
38852;BME280;24605;50.092;9.182;2022-11-13T12:30:01;98434.06;;;12.47;73.52
38852;BME280;24605;50.092;9.182;2022-11-13T12:32:38;98430.13;;;12.51;57.71
38852;BME280;24605;50.092;9.182;2022-11-13T12:35:12;98420.97;;;12.79;62.55
38852;BME280;24605;50.092;9.182;2022-11-13T12:37:46;98426.22;;;12.79;64.20
38852;BME280;24605;50.092;9.182;2022-11-13T12:40:26;98397.13;;;12.80;58.02
38852;BME280;24605;50.092;9.182;2022-11-13T12:43:03;98393.63;;;12.88;54.85
38852;BME280;24605;50.092;9.182;2022-11-13T12:45:45;98412.59;;;13.07;54.87
38852;BME280;24605;50.092;9.182;2022-11-13T12:48:26;98397.19;;;13.04;54.37
38852;BME280;24605;50.092;9.182;2022-11-13T12:50:56;98419.28;;;12.94;52.79
38852;BME280;24605;50.092;9.182;2022-11-13T12:53:25;98407.38;;;12.98;50.69
38852;BME280;24605;50.092;9.182;2022-11-13T12:55:59;98410.19;;;12.97;49.95
38852;BME280;24605;50.092;9.182;2022-11-13T12:58:28;98408.69;;;13.03;49.04
38852;BME280;24605;50.092;9.182;2022-11-13T13:00:59;98399.44;;;13.07;46.98
38852;BME280;24605;50.092;9.182;2022-11-13T13:03:45;98399.53;;;13.22;45.77
38852;BME280;24605;50.092;9.182;2022-11-13T13:06:28;98384.66;;;13.29;44.34
38852;BME280;24605;50.092;9.182;2022-11-13T13:09:20;98387.94;;;13.31;44.55
38852;BME280;24605;50.092;9.182;2022-11-13T13:11:59;98349.50;;;13.22;43.44
38852;BME280;24605;50.092;9.182;2022-11-13T13:14:39;98380.69;;;13.33;44.32